createdAt,value
2022-08-11T00:02:12.755Z,98129.59
2022-08-11T00:07:20.211Z,98133.34
2022-08-11T00:12:24.737Z,98122.38
2022-08-11T00:17:32.713Z,98118.91
2022-08-11T00:22:38.475Z,98123.84
2022-08-11T00:27:43.572Z,98117.34
2022-08-11T00:32:59.168Z,98124.94
2022-08-11T00:38:04.294Z,98122.81
2022-08-11T00:43:21.376Z,98126.06
2022-08-11T00:48:34.641Z,98132.13
2022-08-11T00:53:50.262Z,98125.25
2022-08-11T00:59:37.901Z,98124.91
2022-08-11T01:05:15.477Z,98120.91
2022-08-11T01:10:50.400Z,98126.22
2022-08-11T01:16:15.489Z,98122.34
2022-08-11T01:21:57.090Z,98129.72
2022-08-11T01:27:43.396Z,98121.03
2022-08-11T01:33:32.774Z,98128.44
2022-08-11T01:39:05.218Z,98125.88
2022-08-11T01:44:42.789Z,98123.91
2022-08-11T01:50:09.917Z,98120.47
2022-08-11T01:55:21.121Z,98119.59
2022-08-11T02:00:30.633Z,98122.75
2022-08-11T02:05:56.331Z,98124.06
2022-08-11T02:11:28.650Z,98123.69
2022-08-11T02:16:48.173Z,98119.31
2022-08-11T02:22:14.872Z,98119.03
2022-08-11T02:27:25.236Z,98116.44
2022-08-11T02:32:53.499Z,98107.56
2022-08-11T02:38:12.873Z,98113.09
2022-08-11T02:43:32.050Z,98112.00
2022-08-11T02:49:07.047Z,98114.91
2022-08-11T02:54:22.564Z,98122.84
2022-08-11T02:59:54.276Z,98122.22
2022-08-11T03:05:07.328Z,98112.78
2022-08-11T03:10:19.512Z,98105.06
2022-08-11T03:16:01.420Z,98114.19
2022-08-11T03:21:11.380Z,98113.53
2022-08-11T03:26:25.817Z,98116.56
2022-08-11T03:31:35.629Z,98113.53
2022-08-11T03:37:34.875Z,98117.72
2022-08-11T03:42:51.252Z,98118.22
2022-08-11T03:48:20.931Z,98123.69
2022-08-11T03:53:50.405Z,98124.75
2022-08-11T03:59:25.982Z,98134.06
2022-08-11T04:04:59.893Z,98137.19
2022-08-11T04:10:42.007Z,98131.50
2022-08-11T04:16:17.276Z,98136.19
2022-08-11T04:21:57.321Z,98136.75
2022-08-11T04:27:39.132Z,98140.59
2022-08-11T04:33:36.510Z,98134.28
2022-08-11T04:39:00.067Z,98130.88
2022-08-11T04:44:51.964Z,98118.72
2022-08-11T04:50:37.731Z,98119.97
2022-08-11T04:56:22.222Z,98131.03
2022-08-11T05:01:42.900Z,98124.91
2022-08-11T05:07:09.197Z,98130.75
2022-08-11T05:12:34.975Z,98132.16
2022-08-11T05:18:02.692Z,98126.47
2022-08-11T05:23:27.928Z,98122.84
2022-08-11T05:28:53.442Z,98120.53
2022-08-11T05:34:20.520Z,98132.13
2022-08-11T05:39:44.402Z,98131.72
2022-08-11T05:45:15.574Z,98133.84
2022-08-11T05:50:40.762Z,98131.22
2022-08-11T05:56:04.612Z,98131.00
2022-08-11T06:01:09.393Z,98139.41
2022-08-11T06:06:14.535Z,98132.75
2022-08-11T06:11:19.271Z,98129.69
2022-08-11T06:16:43.858Z,98124.03
2022-08-11T06:21:49.514Z,98124.19
2022-08-11T06:27:11.663Z,98122.56
2022-08-11T06:32:17.673Z,98121.97
2022-08-11T06:37:30.389Z,98118.13
2022-08-11T06:42:49.311Z,98115.53
2022-08-11T06:47:53.727Z,98109.81
2022-08-11T06:52:59.329Z,98108.44
2022-08-11T06:58:22.826Z,98108.41
2022-08-11T07:03:30.730Z,98110.72
2022-08-11T07:09:22.514Z,98108.72
2022-08-11T07:14:46.906Z,98110.34
2022-08-11T07:20:11.988Z,98102.91
2022-08-11T07:25:34.911Z,98097.59
2022-08-11T07:30:41.928Z,98095.00
2022-08-11T07:35:51.010Z,98095.06
2022-08-11T07:41:00.831Z,98094.03
2022-08-11T07:46:23.151Z,98092.97
2022-08-11T07:51:44.634Z,98086.56
2022-08-11T07:57:07.465Z,98095.41
2022-08-11T08:02:31.739Z,98086.97
2022-08-11T08:07:56.132Z,98081.63
2022-08-11T08:13:19.911Z,98087.59
2022-08-11T08:18:27.631Z,98083.09
2022-08-11T08:23:34.473Z,98081.56
2022-08-11T08:28:40.970Z,98071.06
2022-08-11T08:33:44.821Z,98077.44
2022-08-11T08:38:51.445Z,98080.84
2022-08-11T08:44:27.640Z,98074.28
2022-08-11T08:49:35.222Z,98083.16
2022-08-11T08:54:47.390Z,98076.03
2022-08-11T08:59:53.174Z,98069.56
2022-08-11T09:04:58.646Z,98076.81
2022-08-11T09:10:03.147Z,98070.69
2022-08-11T09:15:12.032Z,98064.09
2022-08-11T09:20:19.981Z,98066.75
2022-08-11T09:25:45.127Z,98072.28
2022-08-11T09:30:55.440Z,98049.22
2022-08-11T09:36:22.263Z,98061.22
2022-08-11T09:41:26.408Z,98050.09
2022-08-11T09:47:19.858Z,98043.69
2022-08-11T09:52:25.957Z,98025.66
2022-08-11T09:57:47.978Z,98020.25
2022-08-11T10:02:57.004Z,98023.09
2022-08-11T10:08:02.099Z,98019.50
2022-08-11T10:14:31.296Z,98020.28
2022-08-11T10:18:49.641Z,98001.94
2022-08-11T10:24:12.367Z,98012.13
2022-08-11T10:29:37.473Z,98004.78
2022-08-11T10:34:54.586Z,97991.28
2022-08-11T10:40:03.540Z,97994.03
2022-08-11T10:45:30.311Z,97988.38
2022-08-11T10:50:53.407Z,97977.44
2022-08-11T10:56:16.070Z,97968.91
2022-08-11T11:01:32.671Z,97968.78
2022-08-11T11:06:47.722Z,97963.59
2022-08-11T11:12:12.235Z,97964.41
2022-08-11T11:17:38.901Z,97951.47
2022-08-11T11:22:48.234Z,97960.47
2022-08-11T11:28:07.372Z,97951.59
2022-08-11T11:33:19.723Z,97938.16
2022-08-11T11:38:25.349Z,97939.13
2022-08-11T11:43:29.326Z,97928.50
2022-08-11T11:48:33.700Z,97942.94
2022-08-11T11:53:38.736Z,97931.31
2022-08-11T11:59:00.758Z,97943.34
2022-08-11T12:04:07.364Z,97921.31
2022-08-11T12:09:14.963Z,97924.53
2022-08-11T12:14:20.603Z,97905.63
2022-08-11T12:19:28.818Z,97908.28
2022-08-11T12:24:59.385Z,97904.44
2022-08-11T12:30:08.571Z,97895.72
2022-08-11T12:35:17.022Z,97891.59
2022-08-11T12:41:12.134Z,97884.97
2022-08-11T12:46:11.530Z,97879.84
2022-08-11T12:52:02.994Z,97862.59
2022-08-11T12:57:37.386Z,97859.84
2022-08-11T13:03:00.076Z,97839.06
2022-08-11T13:08:04.829Z,97843.47
2022-08-11T13:13:52.672Z,97841.84
2022-08-11T13:18:35.676Z,97835.47
2022-08-11T13:23:41.104Z,97844.91
2022-08-11T13:29:06.197Z,97834.44
2022-08-11T13:34:10.967Z,97832.25
2022-08-11T13:39:15.408Z,97827.75
2022-08-11T13:44:25.606Z,97818.56
2022-08-11T13:49:31.664Z,97811.81
2022-08-11T13:54:38.470Z,97813.25
2022-08-11T13:59:52.068Z,97804.97
2022-08-11T14:04:58.670Z,97808.88
2022-08-11T14:10:04.338Z,97803.28
2022-08-11T14:15:20.203Z,97795.66
2022-08-11T14:20:38.084Z,97792.75
2022-08-11T14:26:04.858Z,97784.66
2022-08-11T14:31:10.821Z,97782.88
2022-08-11T14:36:15.020Z,97778.09
2022-08-11T14:41:37.253Z,97778.91
2022-08-11T14:47:24.130Z,97784.00
2022-08-11T14:52:30.543Z,97772.22
2022-08-11T14:58:04.815Z,97779.72
2022-08-11T15:03:14.339Z,97771.63
2022-08-11T15:08:19.359Z,97763.22
2022-08-11T15:13:23.065Z,97754.69
2022-08-11T15:18:28.427Z,97759.53
2022-08-11T15:23:55.779Z,97749.81
2022-08-11T15:29:19.466Z,97739.88
2022-08-11T15:34:47.903Z,97741.31
2022-08-11T15:40:30.141Z,97741.06
2022-08-11T15:45:49.235Z,97737.25
2022-08-11T15:51:00.032Z,97738.22
2022-08-11T15:56:05.271Z,97737.28
2022-08-11T16:01:27.722Z,97732.91
2022-08-11T16:06:34.981Z,97724.75
2022-08-11T16:11:40.841Z,97724.47
2022-08-11T16:16:46.698Z,97725.44
2022-08-11T16:21:53.822Z,97718.09
2022-08-11T16:27:11.084Z,97718.34
2022-08-11T16:32:21.218Z,97718.88
2022-08-11T16:37:45.408Z,97719.34
2022-08-11T16:43:11.409Z,97717.47
2022-08-11T16:48:35.671Z,97724.53
2022-08-11T16:53:46.036Z,97727.13
2022-08-11T16:59:18.019Z,97726.63
2022-08-11T17:04:46.741Z,97726.69
2022-08-11T17:10:39.066Z,97731.94
2022-08-11T17:15:56.009Z,97723.03
2022-08-11T17:20:59.951Z,97724.19
2022-08-11T17:26:58.884Z,97730.09
2022-08-11T17:32:23.237Z,97729.00
2022-08-11T17:37:33.236Z,97723.00
2022-08-11T17:42:58.005Z,97714.84
2022-08-11T17:48:21.223Z,97714.91
2022-08-11T17:54:10.008Z,97716.16
2022-08-11T17:59:32.354Z,97722.50
2022-08-11T18:04:36.454Z,97739.06
2022-08-11T18:09:57.787Z,97727.41
2022-08-11T18:15:22.638Z,97736.25
2022-08-11T18:20:54.276Z,97737.91
2022-08-11T18:26:19.424Z,97743.59
2022-08-11T18:31:43.842Z,97746.69
2022-08-11T18:37:11.234Z,97748.53
2022-08-11T18:42:42.310Z,97748.22
2022-08-11T18:48:07.210Z,97754.56
2022-08-11T18:53:31.982Z,97752.75
2022-08-11T18:58:55.636Z,97763.88
2022-08-11T19:04:20.829Z,97753.13
2022-08-11T19:09:42.823Z,97762.38
2022-08-11T19:15:06.560Z,97771.38
2022-08-11T19:20:32.014Z,97780.41
2022-08-11T19:25:54.639Z,97780.50
2022-08-11T19:31:16.232Z,97779.25
2022-08-11T19:36:40.496Z,97782.97
2022-08-11T19:42:03.036Z,97785.84
2022-08-11T19:47:25.360Z,97789.19
2022-08-11T19:52:53.396Z,97796.19
2022-08-11T19:58:15.772Z,97791.50
2022-08-11T20:03:37.174Z,97808.44
2022-08-11T20:09:02.495Z,97803.25
2022-08-11T20:14:25.489Z,97796.50
2022-08-11T20:19:55.031Z,97808.38
2022-08-11T20:25:19.613Z,97809.56
2022-08-11T20:30:41.565Z,97811.41
2022-08-11T20:36:02.832Z,97814.56
2022-08-11T20:41:27.643Z,97824.78
2022-08-11T20:46:50.216Z,97822.00
2022-08-11T20:52:11.926Z,97820.88
2022-08-11T20:58:00.073Z,97819.47
2022-08-11T21:03:35.875Z,97830.97
2022-08-11T21:08:59.862Z,97826.84
2022-08-11T21:14:26.665Z,97828.78
2022-08-11T21:20:01.691Z,97827.69
2022-08-11T21:25:31.288Z,97829.06
2022-08-11T21:30:56.336Z,97830.81
2022-08-11T21:36:21.135Z,97824.78
2022-08-11T21:41:42.357Z,97827.16
2022-08-11T21:47:15.586Z,97828.69
2022-08-11T21:52:39.352Z,97834.56
2022-08-11T21:58:02.282Z,97836.97
2022-08-11T22:03:25.147Z,97839.28
2022-08-11T22:08:47.623Z,97847.00
2022-08-11T22:14:08.805Z,97845.06
2022-08-11T22:19:33.140Z,97852.13
2022-08-11T22:24:56.312Z,97849.44
2022-08-11T22:30:18.608Z,97855.03
2022-08-11T22:35:41.919Z,97848.56
2022-08-11T22:41:03.456Z,97854.03
2022-08-11T22:46:24.714Z,97849.41
2022-08-11T22:51:48.667Z,97842.59
2022-08-11T22:57:10.082Z,97845.91
2022-08-11T23:02:32.091Z,97841.88
2022-08-11T23:07:55.903Z,97841.59
2022-08-11T23:13:22.306Z,97845.25
2022-08-11T23:18:44.787Z,97830.22
2022-08-11T23:24:08.642Z,97846.72
2022-08-11T23:29:30.537Z,97855.22
2022-08-11T23:35:04.473Z,97857.03
2022-08-11T23:40:37.952Z,97853.75
2022-08-11T23:45:59.224Z,97842.66
2022-08-11T23:51:21.368Z,97836.06
2022-08-11T23:56:43.907Z,97840.94
